Time,TemperatureF,DewpointF,PressureIn,WindDirection,WindDirectionDegrees,WindSpeedMPH,WindSpeedGustMPH,Humidity,HourlyPrecipIn,Conditions,Clouds,dailyrainin,SoftwareType,DateUTC
2013-06-23 00:02:00,58.0,55.0,29.82,North,355,2.0,6.0,89,-99.99,,,-99.99,,2013-06-23 07:02:00,
2013-06-23 01:10:00,58.0,53.0,29.80,ESE,110,0.0,1.0,83,-99.99,,,-99.99,,2013-06-23 08:10:00,
2013-06-23 02:10:00,59.0,54.0,29.78,NE,40,2.0,3.0,83,-99.99,,,-99.99,,2013-06-23 09:10:00,
2013-06-23 03:02:00,59.0,54.0,29.78,NE,40,2.0,3.0,83,-99.99,,,-99.99,,2013-06-23 10:02:00,
2013-06-23 03:10:00,56.0,54.0,29.77,NE,35,3.0,5.0,92,-99.99,,,-99.99,,2013-06-23 10:10:00,
2013-06-23 04:10:00,58.0,54.0,29.76,North,10,3.0,7.0,86,-99.99,,,-99.99,,2013-06-23 11:10:00,
2013-06-23 05:10:00,56.0,53.0,29.75,NNE,25,1.0,3.0,89,-99.99,,,-99.99,,2013-06-23 12:10:00,
2013-06-23 06:10:00,59.0,54.0,29.74,WNW,300,0.0,1.0,83,-99.99,,,-99.99,,2013-06-23 13:10:00,
2013-06-23 07:10:00,60.0,54.0,29.73,NNW,335,3.0,5.0,80,-99.99,,,-99.99,,2013-06-23 14:10:00,
2013-06-23 08:10:00,63.0,56.0,29.73,North,360,1.0,3.0,77,-99.99,,,-99.99,,2013-06-23 15:10:00,
2013-06-23 09:10:00,64.0,56.0,29.72,WSW,240,0.0,1.0,75,-99.99,,,-99.99,,2013-06-23 16:10:00,
2013-06-23 10:10:00,66.0,55.0,29.72,SW,215,0.0,1.0,67,-99.99,,,-99.99,,2013-06-23 17:10:00,
2013-06-23 11:10:00,67.0,57.0,29.71,SW,225,1.0,1.0,70,-99.99,,,-99.99,,2013-06-23 18:10:00,
2013-06-23 12:10:00,66.0,59.0,29.70,West,260,0.0,1.0,78,-99.99,,,-99.99,,2013-06-23 19:10:00,
2013-06-23 13:10:00,67.0,60.0,29.69,WNW,285,1.0,3.0,78,-99.99,,,-99.99,,2013-06-23 20:10:00,
2013-06-23 14:10:00,67.0,61.0,29.68,WSW,255,0.0,1.0,81,-99.99,,,-99.99,,2013-06-23 21:10:00,
2013-06-23 16:10:00,66.0,60.0,29.65,West,275,0.0,2.0,80,-99.99,,,-99.99,,2013-06-23 23:10:00,
2013-06-23 17:01:00,66.0,60.0,29.65,West,275,0.0,2.0,80,-99.99,,,-99.99,,2013-06-24 00:01:00,
2013-06-23 17:10:00,67.0,61.0,29.62,SW,230,0.0,3.0,81,-99.99,,,-99.99,,2013-06-24 00:10:00,
2013-06-23 18:10:00,67.0,61.0,29.60,WNW,290,3.0,5.0,81,-99.99,,,-99.99,,2013-06-24 01:10:00,
2013-06-23 19:01:00,67.0,61.0,29.60,WNW,290,3.0,5.0,81,-99.99,,,-99.99,,2013-06-24 02:01:00,
2013-06-23 19:10:00,68.0,62.0,29.59,WSW,240,0.0,1.0,81,-99.99,,,-99.99,,2013-06-24 02:10:00,
2013-06-23 20:10:00,64.0,61.0,29.58,North,-999,0.0,0.0,89,-99.99,,,-99.99,,2013-06-24 03:10:00,
2013-06-23 21:10:00,63.0,62.0,29.57,North,-999,0.0,0.0,96,-99.99,,,-99.99,,2013-06-24 04:10:00,
2013-06-23 22:10:00,62.0,61.0,29.56,North,-999,0.0,0.0,96,-99.99,,,-99.99,,2013-06-24 05:10:00,
2013-06-23 23:10:00,62.0,61.0,29.55,North,-999,0.0,0.0,96,-99.99,,,-99.99,,2013-06-24 06:10:00,